Time;durP1;ratioP1;P1;durP2;ratioP2;P2;SDS_P1;SDS_P2;PMS_P1;PMS_P2;Temp;Humidity;BMP_temperature;BMP_pressure;BME280_temperature;BME280_humidity;BME280_pressure;Samples;Min_cycle;Max_cycle;Signal;HPM_P1;HPM_P2
2021/06/21 00:01:25;;;;;;;11.52;6.50;;;;;;;19.44;68.33;99721.00;5070047;28;20377;-23
2021/06/21 00:03:50;;;;;;;17.45;9.38;;;;;;;19.36;68.96;99716.22;5087871;28;20412;-23
2021/06/21 00:06:15;;;;;;;16.30;7.78;;;;;;;19.68;68.38;99727.22;5087903;28;20036;-23
2021/06/21 00:08:41;;;;;;;13.20;7.63;;;;;;;19.23;70.14;99715.78;5087911;28;20031;-23
2021/06/21 00:11:06;;;;;;;13.00;6.63;;;;;;;19.49;68.91;99699.28;5069920;28;20488;-23
2021/06/21 00:13:32;;;;;;;10.98;7.28;;;;;;;19.64;69.54;99723.47;5087982;28;20027;-23
2021/06/21 00:15:57;;;;;;;11.60;6.47;;;;;;;19.67;68.61;99712.06;5069657;28;20047;-23
2021/06/21 00:18:24;;;;;;;12.35;6.50;;;;;;;19.50;68.26;99706.31;5069361;28;20044;-23
2021/06/21 00:20:51;;;;;;;10.57;6.93;;;;;;;19.60;68.36;99700.81;5069912;28;20036;-23
2021/06/21 00:23:17;;;;;;;10.13;5.93;;;;;;;19.45;70.05;99709.06;5087740;28;20071;-23
2021/06/21 00:25:42;;;;;;;7.82;5.15;;;;;;;19.73;67.42;99699.34;5087625;28;20278;-23
2021/06/21 00:28:08;;;;;;;7.40;4.53;;;;;;;19.26;68.83;99704.41;5087514;28;20106;-23
2021/06/21 00:30:33;;;;;;;8.35;4.82;;;;;;;18.88;71.81;99692.59;5069785;28;20043;-23
2021/06/21 00:32:59;;;;;;;6.82;4.70;;;;;;;18.73;71.02;99701.56;5087650;28;20032;-23
2021/06/21 00:35:24;;;;;;;8.88;4.65;;;;;;;19.14;70.50;99693.16;5088113;28;20036;-23
2021/06/21 00:37:50;;;;;;;8.27;4.68;;;;;;;19.07;70.75;99700.81;5087914;28;20028;-23
2021/06/21 00:40:16;;;;;;;8.07;4.50;;;;;;;19.39;69.11;99697.53;5087316;28;20427;-23
2021/06/21 00:42:44;;;;;;;7.72;4.60;;;;;;;19.19;69.27;99685.00;5087519;28;20028;-23
2021/06/21 00:45:10;;;;;;;7.10;5.00;;;;;;;19.20;69.30;99702.81;5087509;28;20036;-23
2021/06/21 00:47:36;;;;;;;6.85;5.45;;;;;;;19.20;69.76;99697.41;5087473;28;20028;-23
2021/06/21 00:50:02;;;;;;;7.20;4.82;;;;;;;19.53;68.95;99691.41;5087329;28;20043;-23
2021/06/21 00:52:27;;;;;;;9.02;5.00;;;;;;;19.47;68.90;99679.84;5087488;28;20537;-23
2021/06/21 00:55:02;;;;;;;8.10;5.47;;;;;;;19.03;70.20;99695.16;5087462;28;20024;-23
2021/06/21 00:57:28;;;;;;;10.20;5.50;;;;;;;19.04;70.27;99693.25;5071135;28;20820;-23
2021/06/21 00:59:56;;;;;;;8.98;5.38;;;;;;;19.20;69.69;99692.00;5087818;28;20028;-23
2021/06/21 01:02:22;;;;;;;9.52;5.72;;;;;;;18.93;70.69;99699.84;5069646;28;20035;-23
2021/06/21 01:04:47;;;;;;;7.43;5.30;;;;;;;18.95;70.50;99693.06;5052961;28;20036;-23
2021/06/21 01:07:13;;;;;;;7.10;5.10;;;;;;;18.96;71.33;99693.88;5087232;28;20028;-23
2021/06/21 01:09:38;;;;;;;22.05;11.55;;;;;;;19.03;70.50;99694.34;5087352;28;20089;-23
2021/06/21 01:12:08;;;;;;;25.98;13.57;;;;;;;19.36;68.70;99708.09;5055802;28;20035;-23
2021/06/21 01:14:44;;;;;;;21.98;11.60;;;;;;;19.53;68.35;99694.91;5073550;28;20039;-23
2021/06/21 01:17:19;;;;;;;14.05;8.15;;;;;;;19.57;67.78;99701.38;5056403;28;20093;-23
2021/06/21 01:20:03;;;;;;;12.52;7.40;;;;;;;19.50;68.43;99684.69;5072447;28;20043;-23
2021/06/21 01:23:02;;;;;;;10.43;5.97;;;;;;;19.33;69.60;99692.44;5091023;28;20031;-23
2021/06/21 01:25:35;;;;;;;9.90;6.13;;;;;;;19.38;68.57;99674.28;5091119;28;20111;-23
2021/06/21 01:28:05;;;;;;;8.60;5.00;;;;;;;19.30;68.87;99666.78;5056876;28;20038;-23
2021/06/21 01:30:41;;;;;;;8.10;4.57;;;;;;;19.20;69.30;99654.16;5072592;28;20513;-23
2021/06/21 01:33:07;;;;;;;8.40;4.90;;;;;;;19.13;69.80;99678.03;5056684;28;20082;-23
2021/06/21 01:35:41;;;;;;;8.45;4.75;;;;;;;19.07;69.98;99654.88;5055806;28;20454;-23
2021/06/21 01:38:30;;;;;;;8.05;5.03;;;;;;;19.24;69.48;99676.03;5090535;28;20621;-23
2021/06/21 01:40:58;;;;;;;7.35;4.88;;;;;;;19.19;68.85;99676.09;5090730;28;20028;-23
2021/06/21 01:43:26;;;;;;;9.52;5.50;;;;;;;19.39;68.13;99683.19;5055960;28;20484;-23
2021/06/21 01:45:52;;;;;;;10.25;6.05;;;;;;;19.17;69.49;99681.00;5055914;28;20028;-23
2021/06/21 01:48:17;;;;;;;13.55;7.32;;;;;;;19.19;68.51;99687.72;5090037;28;20529;-23
2021/06/21 01:50:43;;;;;;;16.88;8.85;;;;;;;19.48;68.28;99689.59;5072548;28;20032;-23
2021/06/21 01:53:14;;;;;;;14.45;7.90;;;;;;;19.35;67.82;99671.31;5090369;28;20032;-23
2021/06/21 01:55:44;;;;;;;15.80;8.13;;;;;;;18.61;70.54;99666.03;5090532;28;20031;-23
2021/06/21 01:58:10;;;;;;;18.95;8.18;;;;;;;18.33;70.94;99656.75;5055678;28;20043;-22
2021/06/21 02:00:36;;;;;;;13.48;8.05;;;;;;;18.27;71.91;99669.50;5072050;28;20028;-22
2021/06/21 02:03:02;;;;;;;11.07;7.20;;;;;;;18.11;72.32;99670.69;5055501;28;20051;-22
2021/06/21 02:05:28;;;;;;;11.80;7.55;;;;;;;18.16;72.16;99662.53;5071981;28;20052;-22
2021/06/21 02:07:53;;;;;;;12.18;7.38;;;;;;;17.81;73.08;99667.00;5072118;28;20128;-23
2021/06/21 02:10:19;;;;;;;12.57;7.20;;;;;;;17.70;72.73;99668.94;5071831;28;20078;-23
2021/06/21 02:12:45;;;;;;;13.15;6.53;;;;;;;17.72;72.41;99657.91;5071984;28;20032;-23
2021/06/21 02:15:11;;;;;;;9.00;5.45;;;;;;;17.54;72.96;99651.22;5071706;28;20024;-23
2021/06/21 02:17:37;;;;;;;10.07;5.05;;;;;;;17.36;73.64;99639.13;5089829;28;20039;-23
2021/06/21 02:20:03;;;;;;;10.30;5.47;;;;;;;17.46;74.01;99655.28;5090144;28;20024;-22
2021/06/21 02:22:29;;;;;;;9.07;5.60;;;;;;;17.60;73.74;99655.50;5054918;28;20865;-23
2021/06/21 02:24:56;;;;;;;9.73;5.47;;;;;;;17.52;74.09;99654.19;5089944;28;20103;-23
2021/06/21 02:27:21;;;;;;;9.32;5.57;;;;;;;17.42;74.86;99654.22;5089691;28;20498;-22
2021/06/21 02:29:48;;;;;;;8.93;6.18;;;;;;;17.65;74.30;99658.16;5054716;28;20067;-22
2021/06/21 02:32:13;;;;;;;12.80;5.85;;;;;;;17.90;73.76;99646.50;5071299;28;20062;-22
2021/06/21 02:34:39;;;;;;;10.95;5.80;;;;;;;18.27;71.99;99664.13;5071654;28;20055;-22
2021/06/21 02:37:04;;;;;;;13.02;6.38;;;;;;;17.91;74.31;99667.00;5089355;28;20496;-22
2021/06/21 02:39:30;;;;;;;11.80;6.13;;;;;;;18.15;72.76;99669.03;5089592;28;20089;-23
2021/06/21 02:41:55;;;;;;;10.77;5.50;;;;;;;18.24;71.83;99691.66;5089361;28;20507;-23
2021/06/21 02:44:21;;;;;;;11.73;6.53;;;;;;;18.58;71.27;99696.31;5088831;28;20020;-23
2021/06/21 02:46:46;;;;;;;14.50;6.03;;;;;;;18.37;71.11;99701.84;5089339;28;20059;-23
2021/06/21 02:49:12;;;;;;;10.65;6.38;;;;;;;18.65;69.44;99703.00;5089143;28;20024;-22
2021/06/21 02:51:44;;;;;;;10.48;5.57;;;;;;;18.53;68.76;99697.16;5089269;28;20067;-23
2021/06/21 02:54:27;;;;;;;10.95;5.80;;;;;;;18.58;67.84;99699.00;5054859;28;20031;-23
2021/06/21 02:57:15;;;;;;;12.27;6.10;;;;;;;18.86;67.37;99695.56;5054865;28;20028;-23
2021/06/21 02:59:41;;;;;;;11.43;5.97;;;;;;;18.57;69.50;99692.81;5089220;28;20032;-23
2021/06/21 03:02:06;;;;;;;9.85;6.00;;;;;;;18.44;69.44;99710.41;5054118;28;20420;-23
2021/06/21 03:04:32;;;;;;;15.70;7.22;;;;;;;18.35;71.23;99720.22;5054083;28;20071;-23
2021/06/21 03:06:57;;;;;;;12.07;6.68;;;;;;;18.38;71.27;99703.44;5071183;28;20111;-23
2021/06/21 03:09:23;;;;;;;15.02;6.47;;;;;;;18.36;72.04;99716.41;5088963;28;20047;-22
2021/06/21 03:11:49;;;;;;;11.73;6.30;;;;;;;18.14;72.33;99713.28;5088785;28;20385;-23
2021/06/21 03:14:15;;;;;;;14.70;5.97;;;;;;;18.37;72.34;99715.34;5070405;28;20122;-22
2021/06/21 03:16:41;;;;;;;12.35;6.05;;;;;;;18.69;71.03;99730.25;5070571;28;20036;-23
2021/06/21 03:19:06;;;;;;;14.40;6.70;;;;;;;18.76;70.95;99714.53;5088335;28;20052;-23
2021/06/21 03:21:32;;;;;;;13.07;6.25;;;;;;;18.77;70.31;99713.44;5070652;28;20039;-23
2021/06/21 03:23:57;;;;;;;13.82;6.75;;;;;;;18.94;70.15;99709.56;5070299;28;20024;-23
2021/06/21 03:26:27;;;;;;;15.05;6.90;;;;;;;18.92;70.34;99720.66;5088193;28;20023;-23
2021/06/21 03:28:53;;;;;;;10.43;6.28;;;;;;;18.84;70.17;99713.97;5088402;28;20078;-23
2021/06/21 03:31:18;;;;;;;16.20;7.25;;;;;;;18.29;72.28;99710.53;5088419;28;20495;-22
2021/06/21 03:33:43;;;;;;;14.23;6.88;;;;;;;17.98;73.76;99704.44;5069167;28;20413;-23
2021/06/21 03:36:09;;;;;;;12.27;6.90;;;;;;;17.98;73.54;99715.25;5088267;28;20043;-23
2021/06/21 03:38:34;;;;;;;12.85;6.15;;;;;;;18.29;72.17;99715.94;5088515;28;20039;-23
2021/06/21 03:41:01;;;;;;;13.88;6.82;;;;;;;17.86;73.27;99715.59;5088231;28;20035;-23
2021/06/21 03:43:27;;;;;;;13.25;7.15;;;;;;;17.83;74.67;99708.03;5088062;28;20164;-23
2021/06/21 03:45:54;;;;;;;12.75;7.03;;;;;;;17.98;74.00;99718.78;5070224;28;20099;-23
2021/06/21 03:48:20;;;;;;;12.23;6.32;;;;;;;18.11;75.60;99719.25;5087866;28;20059;-23
2021/06/21 03:50:45;;;;;;;15.52;6.30;;;;;;;18.09;74.28;99710.63;5088170;28;20108;-23
2021/06/21 03:53:11;;;;;;;13.75;6.47;;;;;;;18.09;74.41;99706.03;5087963;28;20556;-23
2021/06/21 03:55:37;;;;;;;13.85;6.60;;;;;;;18.20;74.42;99702.19;5088399;28;20124;-22
2021/06/21 03:58:02;;;;;;;11.45;6.63;;;;;;;18.00;75.59;99723.88;5087951;28;20097;-22
2021/06/21 04:00:29;;;;;;;14.57;7.63;;;;;;;18.00;75.40;99713.91;5088195;28;20400;-22
2021/06/21 04:02:56;;;;;;;14.32;7.70;;;;;;;17.79;76.32;99696.16;5087888;28;20081;-23
2021/06/21 04:05:22;;;;;;;12.15;6.93;;;;;;;17.72;76.45;99701.03;5087939;28;20576;-22
2021/06/21 04:07:48;;;;;;;11.50;7.13;;;;;;;18.01;75.67;99710.13;5087667;28;20127;-23
2021/06/21 04:10:15;;;;;;;12.85;7.20;;;;;;;18.12;74.50;99712.75;5087731;28;20415;-23
2021/06/21 04:12:41;;;;;;;12.80;6.82;;;;;;;18.12;74.99;99715.47;5087712;28;20056;-22
2021/06/21 04:15:08;;;;;;;14.85;7.30;;;;;;;18.12;75.28;99732.44;5069817;28;20104;-22
2021/06/21 04:17:34;;;;;;;12.02;6.97;;;;;;;18.27;74.50;99718.91;5087322;28;20036;-23
2021/06/21 04:20:00;;;;;;;10.85;6.53;;;;;;;18.35;74.51;99722.91;5069660;28;20028;-23
2021/06/21 04:22:25;;;;;;;16.33;7.80;;;;;;;18.71;73.38;99725.38;5087361;28;20043;-23
2021/06/21 04:24:51;;;;;;;12.45;6.75;;;;;;;18.81;72.47;99728.03;5087647;28;20028;-23
2021/06/21 04:27:16;;;;;;;13.43;7.50;;;;;;;18.62;73.51;99703.56;5087619;28;20031;-23
2021/06/21 04:29:42;;;;;;;13.82;7.43;;;;;;;18.61;73.08;99717.34;5087743;28;20093;-23
2021/06/21 04:32:07;;;;;;;11.57;7.40;;;;;;;18.55;73.98;99713.06;5087450;28;20032;-23
2021/06/21 04:34:33;;;;;;;11.68;8.05;;;;;;;18.68;74.03;99723.25;5087850;28;20024;-23
2021/06/21 04:36:58;;;;;;;15.80;7.15;;;;;;;18.68;73.10;99720.53;5087510;28;20039;-23
2021/06/21 04:39:23;;;;;;;15.15;7.65;;;;;;;18.94;73.14;99723.06;5087659;28;20039;-23
2021/06/21 04:41:49;;;;;;;12.82;7.93;;;;;;;18.78;73.96;99728.56;5087645;28;20778;-23
2021/06/21 04:44:15;;;;;;;11.77;7.70;;;;;;;18.73;74.37;99725.09;5088128;28;20060;-23
2021/06/21 04:46:40;;;;;;;12.70;7.60;;;;;;;18.97;73.63;99739.53;5091637;28;20032;-23
2021/06/21 04:49:11;;;;;;;13.35;7.70;;;;;;;19.11;72.69;99741.59;5091515;28;20423;-22
2021/06/21 04:51:37;;;;;;;13.90;7.20;;;;;;;19.27;72.81;99746.56;5091801;28;20827;-23
2021/06/21 04:54:02;;;;;;;13.82;7.20;;;;;;;19.36;71.73;99735.13;5091380;28;20016;-23
2021/06/21 04:56:28;;;;;;;11.18;6.65;;;;;;;19.01;72.52;99753.28;5091262;28;20028;-23
2021/06/21 04:58:55;;;;;;;11.05;7.32;;;;;;;19.44;71.72;99756.16;5091529;28;20423;-22
2021/06/21 05:01:20;;;;;;;11.18;7.53;;;;;;;19.49;71.13;99758.78;5091287;28;20047;-22
2021/06/21 05:03:45;;;;;;;10.23;7.93;;;;;;;19.30;72.02;99755.19;5091385;28;20024;-22
2021/06/21 05:06:11;;;;;;;13.85;8.55;;;;;;;19.60;71.08;99746.78;5090969;28;20060;-22
2021/06/21 05:08:36;;;;;;;11.73;7.55;;;;;;;19.66;70.97;99748.34;5091159;28;20384;-23
2021/06/21 05:11:02;;;;;;;11.63;8.13;;;;;;;19.89;70.42;99750.56;5073288;28;20035;-23
2021/06/21 05:13:27;;;;;;;12.02;8.65;;;;;;;19.82;69.86;99751.72;5091177;28;20035;-22
2021/06/21 05:15:53;;;;;;;12.73;8.38;;;;;;;19.52;71.23;99754.72;5090895;28;20396;-23
2021/06/21 05:18:18;;;;;;;14.52;9.10;;;;;;;19.54;71.19;99756.06;5090626;28;20048;-22
2021/06/21 05:20:43;;;;;;;13.73;9.40;;;;;;;19.53;71.77;99754.41;5072629;28;20095;-22
2021/06/21 05:23:09;;;;;;;15.52;9.65;;;;;;;19.98;70.55;99749.66;5090934;28;20420;-23
2021/06/21 05:25:35;;;;;;;14.30;10.30;;;;;;;19.90;70.79;99750.28;5090773;28;20088;-23
2021/06/21 05:28:03;;;;;;;17.83;11.52;;;;;;;19.76;69.90;99725.81;5091140;28;20038;-23
2021/06/21 05:30:29;;;;;;;16.95;10.75;;;;;;;20.14;70.13;99769.19;5090750;28;20024;-23
2021/06/21 05:32:54;;;;;;;15.98;10.10;;;;;;;20.01;69.50;99759.88;5091042;28;20850;-23
2021/06/21 05:35:21;;;;;;;13.70;9.07;;;;;;;19.81;70.71;99754.72;5090770;28;20036;-23
2021/06/21 05:37:47;;;;;;;15.65;8.80;;;;;;;20.27;69.83;99773.13;5090537;28;20027;-22
2021/06/21 05:40:13;;;;;;;11.90;7.95;;;;;;;20.36;68.76;99765.16;5090241;28;20450;-22
2021/06/21 05:42:39;;;;;;;14.88;8.25;;;;;;;20.73;68.72;99775.22;5072482;28;20032;-22
2021/06/21 05:45:05;;;;;;;10.25;7.57;;;;;;;20.62;68.40;99780.00;5090299;28;20093;-22
2021/06/21 05:47:30;;;;;;;13.90;7.80;;;;;;;20.55;69.10;99762.44;5090215;28;20135;-22
2021/06/21 05:49:56;;;;;;;13.65;7.93;;;;;;;20.64;68.36;99772.38;5090275;28;20403;-23
2021/06/21 05:52:21;;;;;;;18.00;11.45;;;;;;;20.92;68.38;99763.56;5089923;28;20028;-23
2021/06/21 05:54:47;;;;;;;13.20;9.30;;;;;;;21.05;67.48;99743.84;5090118;28;20020;-23
2021/06/21 05:57:12;;;;;;;13.07;8.88;;;;;;;21.14;67.45;99742.03;5089552;28;20427;-22
2021/06/21 05:59:38;;;;;;;11.35;7.88;;;;;;;21.35;66.56;99753.38;5090053;28;20028;-23
2021/06/21 06:02:03;;;;;;;13.50;8.02;;;;;;;21.60;65.86;99748.63;5089797;28;20035;-23
2021/06/21 06:04:29;;;;;;;14.32;8.60;;;;;;;21.87;65.61;99745.09;5089687;28;20061;-22
2021/06/21 06:06:54;;;;;;;10.90;7.82;;;;;;;22.01;65.04;99745.09;5090014;28;20389;-23
2021/06/21 06:09:20;;;;;;;11.70;8.20;;;;;;;22.48;63.52;99753.91;5090095;28;20035;-23
2021/06/21 06:11:45;;;;;;;11.32;7.00;;;;;;;22.61;63.27;99755.75;5090183;28;20036;-22
2021/06/21 06:14:11;;;;;;;12.25;7.47;;;;;;;22.36;63.09;99749.00;5089737;28;20905;-23
2021/06/21 06:16:36;;;;;;;9.45;7.00;;;;;;;22.23;64.21;99745.19;5089412;28;20044;-22
2021/06/21 06:19:02;;;;;;;11.10;6.82;;;;;;;22.52;62.82;99741.31;5089161;28;20052;-22
2021/06/21 06:21:29;;;;;;;11.68;7.97;;;;;;;22.27;62.67;99739.94;5089742;28;20065;-22
2021/06/21 06:23:58;;;;;;;10.68;7.25;;;;;;;22.12;61.95;99722.03;5089450;28;20031;-22
2021/06/21 06:26:23;;;;;;;9.10;7.38;;;;;;;22.33;62.11;99727.06;5089289;28;20032;-22
2021/06/21 06:28:49;;;;;;;9.65;7.78;;;;;;;22.86;61.47;99748.13;5089509;28;20032;-22
2021/06/21 06:31:14;;;;;;;13.13;8.65;;;;;;;23.08;60.05;99741.91;5089436;28;20035;-22
2021/06/21 06:33:40;;;;;;;12.35;8.77;;;;;;;23.07;61.00;99740.31;5089427;28;20040;-22
2021/06/21 06:36:05;;;;;;;12.23;6.78;;;;;;;23.05;59.31;99739.81;5089264;28;20039;-23
2021/06/21 06:38:31;;;;;;;12.48;7.78;;;;;;;23.17;59.55;99734.63;5089354;28;20030;-23
2021/06/21 06:40:58;;;;;;;11.40;7.50;;;;;;;23.13;59.83;99732.81;5089347;28;20028;-22
2021/06/21 06:43:23;;;;;;;11.48;7.85;;;;;;;23.53;59.01;99730.16;5089053;28;20032;-22
2021/06/21 06:45:49;;;;;;;11.98;7.00;;;;;;;23.78;58.21;99732.22;5089422;28;20078;-23
2021/06/21 06:48:14;;;;;;;8.07;5.70;;;;;;;23.39;56.91;99719.34;5088973;28;20032;-22
2021/06/21 06:50:40;;;;;;;8.57;5.30;;;;;;;23.49;56.82;99723.72;5089196;28;20078;-22
2021/06/21 06:53:06;;;;;;;9.77;6.50;;;;;;;23.73;57.72;99729.59;5089133;28;20408;-22
2021/06/21 06:58:15;;;;;;;9.38;6.93;;;;;;;24.05;59.05;99709.38;5088804;28;20089;-22
2021/06/21 07:00:41;;;;;;;9.13;5.75;;;;;;;23.94;57.46;99709.97;5089064;28;20032;-23
2021/06/21 07:03:08;;;;;;;9.07;6.20;;;;;;;23.85;57.76;99720.84;5088862;28;20412;-22
2021/06/21 07:05:33;;;;;;;7.15;5.50;;;;;;;24.04;57.09;99726.03;5070718;28;20506;-22
2021/06/21 07:07:59;;;;;;;8.57;5.60;;;;;;;24.03;56.66;99711.59;5087904;28;20036;-22
2021/06/21 07:10:25;;;;;;;10.10;6.97;;;;;;;24.24;58.74;99732.81;5088729;28;20028;-22
2021/06/21 07:12:50;;;;;;;11.13;5.82;;;;;;;24.34;57.43;99732.50;5088643;28;20178;-22
2021/06/21 07:15:16;;;;;;;7.97;5.10;;;;;;;24.30;55.73;99736.19;5088466;28;20127;-22
2021/06/21 07:17:42;;;;;;;9.80;5.18;;;;;;;24.14;57.06;99744.00;5088338;28;20522;-22
2021/06/21 07:20:08;;;;;;;9.13;5.60;;;;;;;24.41;55.79;99746.44;5088341;28;20035;-22
2021/06/21 07:22:33;;;;;;;9.73;6.60;;;;;;;24.56;56.03;99752.56;5088375;28;20024;-22
2021/06/21 07:24:59;;;;;;;9.13;5.82;;;;;;;24.24;57.11;99749.94;5088422;28;20020;-22
2021/06/21 07:27:26;;;;;;;7.25;5.60;;;;;;;24.41;56.11;99751.09;5088549;28;20069;-22
2021/06/21 07:29:52;;;;;;;8.75;5.68;;;;;;;24.86;54.73;99751.59;5088148;28;20036;-23
2021/06/21 07:32:18;;;;;;;8.75;6.30;;;;;;;24.81;55.05;99746.31;5088398;28;20157;-23
2021/06/21 07:34:43;;;;;;;11.40;6.25;;;;;;;24.92;54.89;99735.06;5088371;28;20110;-22
2021/06/21 07:37:09;;;;;;;10.20;6.45;;;;;;;25.15;54.46;99749.31;5088831;28;20032;-22
2021/06/21 07:39:34;;;;;;;10.73;7.00;;;;;;;25.24;54.71;99750.94;5088307;28;20032;-22
2021/06/21 07:42:00;;;;;;;11.73;6.97;;;;;;;25.14;55.83;99734.88;5088238;28;20040;-22
2021/06/21 07:44:25;;;;;;;9.05;6.60;;;;;;;24.82;56.13;99741.66;5087684;28;20066;-22
2021/06/21 07:46:51;;;;;;;11.18;6.65;;;;;;;25.15;56.63;99733.75;5088082;28;20480;-22
2021/06/21 07:49:16;;;;;;;7.72;6.28;;;;;;;25.39;54.81;99737.88;5087891;28;20028;-22
2021/06/21 07:51:43;;;;;;;7.53;4.93;;;;;;;25.31;52.71;99728.59;5088137;28;20032;-22
2021/06/21 07:54:11;;;;;;;9.50;5.45;;;;;;;25.20;54.70;99713.69;5087674;28;20074;-22
2021/06/21 07:56:37;;;;;;;9.30;5.80;;;;;;;25.79;54.08;99726.66;5087808;28;20499;-22
2021/06/21 07:59:02;;;;;;;8.43;5.28;;;;;;;25.64;52.88;99722.53;5087656;28;20028;-22
2021/06/21 08:01:27;;;;;;;7.82;4.97;;;;;;;25.72;54.05;99732.59;5087937;28;20039;-22
2021/06/21 08:03:55;;;;;;;8.10;5.28;;;;;;;25.69;53.32;99722.34;5087615;28;20096;-22
2021/06/21 08:06:21;;;;;;;12.13;5.85;;;;;;;25.40;53.24;99718.47;5087418;28;20479;-22
2021/06/21 08:08:46;;;;;;;8.32;5.53;;;;;;;25.32;53.69;99732.16;5087876;28;20035;-22
2021/06/21 08:11:12;;;;;;;8.98;5.95;;;;;;;25.82;53.51;99734.19;5087622;28;20472;-22
2021/06/21 08:13:37;;;;;;;9.63;5.63;;;;;;;26.22;52.90;99742.03;5087458;28;20027;-22
2021/06/21 08:16:03;;;;;;;5.80;4.75;;;;;;;26.35;51.66;99740.94;5087532;28;20075;-22
2021/06/21 08:18:29;;;;;;;8.07;5.00;;;;;;;26.03;50.01;99746.00;5087171;28;20044;-23
2021/06/21 08:20:54;;;;;;;7.65;5.22;;;;;;;25.98;51.24;99737.19;5086775;28;20043;-22
2021/06/21 08:23:20;;;;;;;7.60;5.18;;;;;;;26.24;51.66;99745.22;5087452;28;20989;-22
2021/06/21 08:25:46;;;;;;;7.82;5.20;;;;;;;26.53;50.16;99740.84;5087510;28;20043;-22
2021/06/21 08:28:11;;;;;;;8.38;4.90;;;;;;;26.25;50.13;99747.63;5087132;28;20024;-22
2021/06/21 08:30:37;;;;;;;10.02;4.18;;;;;;;26.15;49.78;99730.81;5087076;28;20036;-22
2021/06/21 08:33:03;;;;;;;6.07;3.58;;;;;;;26.31;48.87;99731.81;5086400;28;20028;-22
2021/06/21 08:35:29;;;;;;;6.72;3.60;;;;;;;26.78;49.14;99733.56;5087296;28;20110;-22
2021/06/21 08:37:54;;;;;;;6.13;3.72;;;;;;;26.70;48.24;99718.81;5087480;28;20547;-22
2021/06/21 08:40:21;;;;;;;7.22;4.10;;;;;;;27.36;47.85;99736.38;5087061;28;20040;-22
2021/06/21 08:42:47;;;;;;;4.63;3.17;;;;;;;27.65;45.91;99735.41;5066916;28;20484;-22
2021/06/21 08:45:13;;;;;;;5.47;3.45;;;;;;;27.77;44.30;99740.09;5067086;28;20278;-22
2021/06/21 08:47:38;;;;;;;5.40;3.65;;;;;;;27.16;45.37;99730.63;5065490;28;20024;-22
2021/06/21 08:50:08;;;;;;;5.72;3.55;;;;;;;27.07;46.59;99743.59;5065194;28;20035;-22
2021/06/21 08:52:34;;;;;;;6.43;3.30;;;;;;;27.13;46.68;99749.66;5065300;28;20111;-22
2021/06/21 08:55:05;;;;;;;4.50;3.10;;;;;;;27.22;44.25;99745.69;5065396;28;20111;-22
2021/06/21 08:57:33;;;;;;;4.65;3.17;;;;;;;27.21;46.18;99746.03;5065776;28;20114;-22
2021/06/21 08:59:58;;;;;;;5.18;3.28;;;;;;;27.54;44.84;99746.00;5065786;28;20314;-22
2021/06/21 09:02:24;;;;;;;7.47;3.20;;;;;;;27.42;44.53;99735.00;5064950;28;20707;-22
2021/06/21 09:04:50;;;;;;;6.15;3.40;;;;;;;27.43;45.13;99747.59;5032484;28;20122;-22
2021/06/21 09:07:17;;;;;;;5.47;3.38;;;;;;;27.63;45.98;99751.38;5032320;28;20040;-22
2021/06/21 09:09:42;;;;;;;5.70;3.92;;;;;;;27.30;45.96;99752.25;5067004;28;20028;-22
2021/06/21 09:12:08;;;;;;;6.22;3.58;;;;;;;27.45;45.36;99737.09;5066814;28;20041;-22
2021/06/21 09:14:35;;;;;;;5.88;3.45;;;;;;;27.79;46.68;99735.06;5066906;28;20033;-22
2021/06/21 09:17:08;;;;;;;4.60;3.00;;;;;;;28.00;45.08;99751.41;5066795;28;20429;-22
2021/06/21 09:19:49;;;;;;;4.90;3.83;;;;;;;27.93;45.31;99724.59;5066651;28;20444;-22
2021/06/21 09:22:41;;;;;;;5.50;3.60;;;;;;;27.98;46.56;99748.22;5066267;28;20027;-22
2021/06/21 09:25:15;;;;;;;6.18;3.00;;;;;;;27.94;43.81;99737.13;5028512;28;20048;-22
2021/06/21 09:27:43;;;;;;;4.35;2.88;;;;;;;28.22;42.81;99728.19;5067134;28;20107;-22
2021/06/21 09:30:10;;;;;;;4.85;3.22;;;;;;;28.89;44.35;99738.75;5066495;28;20040;-22
2021/06/21 09:32:48;;;;;;;6.07;3.23;;;;;;;28.78;42.88;99736.50;5069135;28;20079;-22
2021/06/21 09:35:26;;;;;;;4.38;2.70;;;;;;;28.79;41.30;99738.09;5070213;28;20059;-22
2021/06/21 09:37:52;;;;;;;4.32;2.92;;;;;;;29.27;40.95;99746.47;5070194;28;20079;-21
2021/06/21 09:40:30;;;;;;;5.70;3.08;;;;;;;29.52;39.03;99740.81;5073405;28;20040;-22
2021/06/21 09:42:56;;;;;;;3.70;2.35;;;;;;;29.13;37.49;99741.38;5090355;28;20089;-22
2021/06/21 09:45:21;;;;;;;3.65;2.45;;;;;;;29.51;39.30;99723.53;5090047;28;20040;-22
2021/06/21 09:47:47;;;;;;;4.32;3.00;;;;;;;29.91;37.56;99744.53;5090054;28;20412;-22
2021/06/21 09:50:22;;;;;;;4.47;2.63;;;;;;;29.79;37.77;99747.38;5089756;28;20024;-22
2021/06/21 09:52:59;;;;;;;4.80;2.58;;;;;;;29.97;39.91;99737.59;5089951;28;20035;-22
2021/06/21 09:55:36;;;;;;;5.95;2.78;;;;;;;29.46;40.10;99734.78;5090346;28;20020;-22
2021/06/21 09:58:21;;;;;;;3.75;2.65;;;;;;;29.80;39.24;99729.75;5089922;28;20054;-22
2021/06/21 10:01:12;;;;;;;7.07;2.50;;;;;;;29.55;39.43;99723.63;5089306;28;20042;-22
2021/06/21 10:03:41;;;;;;;3.58;2.63;;;;;;;29.80;39.98;99716.00;5072879;28;20032;-21
2021/06/21 10:06:10;;;;;;;4.13;2.75;;;;;;;30.03;38.82;99700.41;5089648;28;20024;-22
2021/06/21 10:08:45;;;;;;;3.42;2.70;;;;;;;29.82;38.41;99717.22;5090086;28;20110;-22
2021/06/21 10:11:33;;;;;;;6.50;3.53;;;;;;;30.10;40.22;99712.72;5088424;28;20032;-22
2021/06/21 10:14:00;;;;;;;4.78;2.67;;;;;;;30.02;38.95;99709.84;5089694;28;20249;-22
2021/06/21 10:16:26;;;;;;;3.88;2.85;;;;;;;30.00;37.77;99720.41;5089051;28;20040;-22
2021/06/21 10:18:51;;;;;;;4.05;2.70;;;;;;;30.04;38.19;99712.22;5089745;28;20052;-22
2021/06/21 10:21:17;;;;;;;4.60;2.75;;;;;;;30.26;37.12;99710.75;5089883;28;20036;-22
2021/06/21 10:23:43;;;;;;;9.13;3.30;;;;;;;30.02;38.49;99707.09;5089487;28;20067;-22
2021/06/21 10:26:10;;;;;;;6.10;2.90;;;;;;;30.14;35.92;99700.66;5089325;28;20422;-21
2021/06/21 10:28:35;;;;;;;8.57;3.10;;;;;;;29.76;37.48;99695.88;5071395;28;20028;-22
2021/06/21 10:31:02;;;;;;;6.78;3.65;;;;;;;29.82;37.59;99702.69;5089236;28;20123;-22
2021/06/21 10:33:29;;;;;;;6.55;3.00;;;;;;;29.83;37.09;99698.78;5089192;28;20050;-22
2021/06/21 10:35:58;;;;;;;4.67;2.70;;;;;;;30.15;37.26;99696.75;5089392;28;20043;-21
2021/06/21 10:38:24;;;;;;;3.00;2.40;;;;;;;29.85;36.15;99693.72;5088984;28;20032;-21
2021/06/21 10:40:58;;;;;;;7.68;3.00;;;;;;;30.26;36.14;99697.00;5088671;28;20032;-22
2021/06/21 10:43:49;;;;;;;4.22;2.85;;;;;;;30.20;35.93;99693.72;5088761;28;20097;-22
2021/06/21 10:46:14;;;;;;;4.65;2.70;;;;;;;30.19;36.25;99685.84;5088767;28;20046;-22
2021/06/21 10:48:58;;;;;;;5.13;2.90;;;;;;;30.60;36.56;99678.03;5089239;28;20020;-22
2021/06/21 10:51:31;;;;;;;5.38;3.08;;;;;;;30.88;36.30;99666.00;5088415;28;20823;-21
2021/06/21 10:53:56;;;;;;;3.97;3.10;;;;;;;31.33;36.65;99680.94;5070665;28;20031;-22
2021/06/21 10:56:44;;;;;;;4.03;3.20;;;;;;;31.29;36.27;99674.59;5088673;28;20059;-22
2021/06/21 10:59:13;;;;;;;4.20;3.00;;;;;;;31.01;37.82;99670.97;5088776;28;20024;-22
2021/06/21 11:01:46;;;;;;;4.75;3.15;;;;;;;31.23;37.67;99671.34;5088818;28;20032;-22
2021/06/21 11:04:32;;;;;;;5.22;3.25;;;;;;;30.98;37.36;99670.91;5088263;28;20032;-22
2021/06/21 11:07:08;;;;;;;3.58;2.80;;;;;;;30.67;37.11;99655.34;5073349;28;20028;-21
2021/06/21 11:09:46;;;;;;;5.63;2.92;;;;;;;30.91;37.20;99676.28;5088595;28;20028;-21
2021/06/21 11:12:21;;;;;;;6.60;3.00;;;;;;;31.08;37.21;99673.06;5088629;28;20028;-22
2021/06/21 11:17:54;;;;;;;5.82;3.15;;;;;;;30.92;37.38;99672.38;5088291;28;20080;-22
2021/06/21 11:20:39;;;;;;;6.82;3.33;;;;;;;30.89;37.09;99673.88;5088419;28;20028;-22
2021/06/21 11:23:29;;;;;;;5.68;3.50;;;;;;;30.81;39.75;99677.66;5088212;28;20039;-22
2021/06/21 11:25:54;;;;;;;4.93;3.30;;;;;;;30.74;38.61;99661.81;5087481;28;20417;-22
2021/06/21 11:28:39;;;;;;;6.50;3.90;;;;;;;30.63;38.67;99672.63;5088299;28;20040;-22
2021/06/21 11:31:26;;;;;;;10.75;6.93;;;;;;;30.98;37.89;99677.22;5088403;28;20059;-22
2021/06/21 11:34:06;;;;;;;11.40;7.55;;;;;;;31.17;37.71;99673.59;5088277;28;20079;-22
2021/06/21 11:36:44;;;;;;;6.75;3.40;;;;;;;31.89;35.62;99673.94;5087524;28;20052;-22
2021/06/21 11:39:17;;;;;;;5.28;3.15;;;;;;;31.82;36.20;99669.91;5088208;28;20484;-22